Martinez Lake, Arizona
Current Conditions -  °F | °C
As of 5:57 PM on Wednesday 22 Oct 2014 (Local Time) from KNYL Reporting Station
Scattered Clouds Scattered Clouds  
Wind Chill: 94°   Ceiling: Unl
Heat Index: 94°   Visibility: 10mi
Dew Point: 38°   Wind: 0mph
Humidity: 14%   Direction: NA
Pressure: 29.84"   Gusts: NA
Location:  32.7338°N, 114.51°W
Report Text: KNYL 222357Z 00000KT 10SM SCT250 34/03 A2984 RMK AO2 SLP101 T03440033 10361 20311 56005
Loading
Personal Weather Stations






























Interactive Weather Map
Tropical Storm Tracking
New forecast layout! Learn more

10-Day Weather Forecast

Advertisements
Track Severe Weather on mobile